sensor_id;sensor_type;location;lat;lon;timestamp;temperature;humidity
15262;DHT22;7733;51.554;13.590;2022-09-09T00:00:49;14.80;99.90
15262;DHT22;7733;51.554;13.590;2022-09-09T00:03:26;14.80;99.90
15262;DHT22;7733;51.554;13.590;2022-09-09T00:09:02;14.90;99.90
15262;DHT22;7733;51.554;13.590;2022-09-09T00:11:48;14.90;99.90
15262;DHT22;7733;51.554;13.590;2022-09-09T00:20:57;14.80;99.90
15262;DHT22;7733;51.554;13.590;2022-09-09T00:23:37;14.70;99.90
15262;DHT22;7733;51.554;13.590;2022-09-09T00:26:35;14.70;99.90
15262;DHT22;7733;51.554;13.590;2022-09-09T00:32:16;14.70;99.90
15262;DHT22;7733;51.554;13.590;2022-09-09T00:34:51;14.60;99.90
15262;DHT22;7733;51.554;13.590;2022-09-09T00:37:22;14.60;99.90
15262;DHT22;7733;51.554;13.590;2022-09-09T00:39:53;14.60;99.90
15262;DHT22;7733;51.554;13.590;2022-09-09T00:42:41;14.60;99.90
15262;DHT22;7733;51.554;13.590;2022-09-09T00:48:31;14.60;99.90
15262;DHT22;7733;51.554;13.590;2022-09-09T00:51:17;14.40;99.90
15262;DHT22;7733;51.554;13.590;2022-09-09T00:57:25;14.40;99.90
15262;DHT22;7733;51.554;13.590;2022-09-09T01:00:22;14.30;99.90
15262;DHT22;7733;51.554;13.590;2022-09-09T01:03:39;14.20;99.90
15262;DHT22;7733;51.554;13.590;2022-09-09T01:06:16;14.10;99.90
15262;DHT22;7733;51.554;13.590;2022-09-09T01:14:47;14.10;99.90
15262;DHT22;7733;51.554;13.590;2022-09-09T01:17:26;14.10;99.90
15262;DHT22;7733;51.554;13.590;2022-09-09T01:20:17;14.20;99.90
15262;DHT22;7733;51.554;13.590;2022-09-09T01:23:12;14.20;99.90
15262;DHT22;7733;51.554;13.590;2022-09-09T01:26:18;14.20;99.90
15262;DHT22;7733;51.554;13.590;2022-09-09T01:28:50;14.30;99.90
15262;DHT22;7733;51.554;13.590;2022-09-09T01:31:42;14.20;99.90
15262;DHT22;7733;51.554;13.590;2022-09-09T01:34:19;14.00;99.90
15262;DHT22;7733;51.554;13.590;2022-09-09T01:36:57;14.00;99.90
15262;DHT22;7733;51.554;13.590;2022-09-09T01:39:27;14.00;99.90
15262;DHT22;7733;51.554;13.590;2022-09-09T01:41:54;13.70;99.90
15262;DHT22;7733;51.554;13.590;2022-09-09T01:44:21;13.80;99.90
15262;DHT22;7733;51.554;13.590;2022-09-09T01:46:47;13.90;99.90
15262;DHT22;7733;51.554;13.590;2022-09-09T01:49:13;13.80;99.90
15262;DHT22;7733;51.554;13.590;2022-09-09T01:51:40;13.90;99.90
15262;DHT22;7733;51.554;13.590;2022-09-09T01:54:08;13.80;99.90
15262;DHT22;7733;51.554;13.590;2022-09-09T02:02:58;13.80;99.90
15262;DHT22;7733;51.554;13.590;2022-09-09T02:05:33;13.80;99.90
15262;DHT22;7733;51.554;13.590;2022-09-09T02:08:18;13.80;99.90
15262;DHT22;7733;51.554;13.590;2022-09-09T02:11:03;13.80;99.90
15262;DHT22;7733;51.554;13.590;2022-09-09T02:13:35;13.80;99.90
15262;DHT22;7733;51.554;13.590;2022-09-09T02:16:12;13.80;99.90
15262;DHT22;7733;51.554;13.590;2022-09-09T02:19:33;13.80;99.90
15262;DHT22;7733;51.554;13.590;2022-09-09T02:21:49;13.80;99.90
15262;DHT22;7733;51.554;13.590;2022-09-09T02:24:16;13.80;99.90
15262;DHT22;7733;51.554;13.590;2022-09-09T02:26:43;13.80;99.90
15262;DHT22;7733;51.554;13.590;2022-09-09T02:29:16;13.70;99.90
15262;DHT22;7733;51.554;13.590;2022-09-09T02:31:47;13.70;99.90
15262;DHT22;7733;51.554;13.590;2022-09-09T02:34:18;13.60;99.90
15262;DHT22;7733;51.554;13.590;2022-09-09T02:36:48;13.70;99.90
15262;DHT22;7733;51.554;13.590;2022-09-09T02:39:14;13.70;99.90
15262;DHT22;7733;51.554;13.590;2022-09-09T02:41:41;13.80;99.90
15262;DHT22;7733;51.554;13.590;2022-09-09T02:44:16;13.80;99.90
15262;DHT22;7733;51.554;13.590;2022-09-09T02:53:19;13.70;99.90
15262;DHT22;7733;51.554;13.590;2022-09-09T02:55:58;13.60;99.90
15262;DHT22;7733;51.554;13.590;2022-09-09T02:58:31;13.50;99.90
15262;DHT22;7733;51.554;13.590;2022-09-09T03:00:57;13.40;99.90
15262;DHT22;7733;51.554;13.590;2022-09-09T03:03:24;13.40;99.90
15262;DHT22;7733;51.554;13.590;2022-09-09T03:05:50;13.30;99.90
15262;DHT22;7733;51.554;13.590;2022-09-09T03:08:17;13.30;99.90
15262;DHT22;7733;51.554;13.590;2022-09-09T03:10:43;13.30;99.90
15262;DHT22;7733;51.554;13.590;2022-09-09T03:13:09;13.30;99.90
15262;DHT22;7733;51.554;13.590;2022-09-09T03:15:36;13.30;99.90
15262;DHT22;7733;51.554;13.590;2022-09-09T03:18:02;13.30;99.90
15262;DHT22;7733;51.554;13.590;2022-09-09T03:20:29;13.30;99.90
15262;DHT22;7733;51.554;13.590;2022-09-09T03:22:56;13.30;99.90
15262;DHT22;7733;51.554;13.590;2022-09-09T03:25:24;13.30;99.90
15262;DHT22;7733;51.554;13.590;2022-09-09T03:27:51;13.10;99.90
15262;DHT22;7733;51.554;13.590;2022-09-09T03:30:20;13.10;99.90
15262;DHT22;7733;51.554;13.590;2022-09-09T03:32:47;13.10;99.90
15262;DHT22;7733;51.554;13.590;2022-09-09T03:35:13;13.10;99.90
15262;DHT22;7733;51.554;13.590;2022-09-09T03:37:40;13.10;99.90
15262;DHT22;7733;51.554;13.590;2022-09-09T03:40:07;13.10;99.90
15262;DHT22;7733;51.554;13.590;2022-09-09T03:42:35;13.00;99.90
15262;DHT22;7733;51.554;13.590;2022-09-09T03:45:03;13.00;99.90
15262;DHT22;7733;51.554;13.590;2022-09-09T03:47:30;13.00;99.90
15262;DHT22;7733;51.554;13.590;2022-09-09T03:49:55;13.00;99.90
15262;DHT22;7733;51.554;13.590;2022-09-09T03:52:21;13.10;99.90
15262;DHT22;7733;51.554;13.590;2022-09-09T03:54:50;13.00;99.90
15262;DHT22;7733;51.554;13.590;2022-09-09T03:57:16;13.00;99.90
15262;DHT22;7733;51.554;13.590;2022-09-09T03:59:43;13.00;99.90
15262;DHT22;7733;51.554;13.590;2022-09-09T04:02:09;13.00;99.90
15262;DHT22;7733;51.554;13.590;2022-09-09T04:04:35;12.90;99.90
15262;DHT22;7733;51.554;13.590;2022-09-09T04:07:00;13.00;99.90
15262;DHT22;7733;51.554;13.590;2022-09-09T04:09:26;12.90;99.90
15262;DHT22;7733;51.554;13.590;2022-09-09T04:11:52;12.90;99.90
15262;DHT22;7733;51.554;13.590;2022-09-09T04:14:19;13.00;99.90
15262;DHT22;7733;51.554;13.590;2022-09-09T04:16:45;12.90;99.90
15262;DHT22;7733;51.554;13.590;2022-09-09T04:19:12;12.90;99.90
15262;DHT22;7733;51.554;13.590;2022-09-09T04:21:39;12.90;99.90
15262;DHT22;7733;51.554;13.590;2022-09-09T04:24:07;13.00;99.90
15262;DHT22;7733;51.554;13.590;2022-09-09T04:26:34;12.90;99.90
15262;DHT22;7733;51.554;13.590;2022-09-09T04:29:02;12.90;99.90
15262;DHT22;7733;51.554;13.590;2022-09-09T04:31:29;13.00;99.90
15262;DHT22;7733;51.554;13.590;2022-09-09T04:33:55;13.00;99.90
15262;DHT22;7733;51.554;13.590;2022-09-09T04:36:21;12.90;99.90
15262;DHT22;7733;51.554;13.590;2022-09-09T04:38:47;12.90;99.90
15262;DHT22;7733;51.554;13.590;2022-09-09T04:41:14;12.90;99.90
15262;DHT22;7733;51.554;13.590;2022-09-09T04:43:41;13.00;99.90
15262;DHT22;7733;51.554;13.590;2022-09-09T04:46:08;13.00;99.90
15262;DHT22;7733;51.554;13.590;2022-09-09T04:48:35;13.00;99.90
15262;DHT22;7733;51.554;13.590;2022-09-09T04:51:03;13.00;99.90
15262;DHT22;7733;51.554;13.590;2022-09-09T04:53:30;13.00;99.90
15262;DHT22;7733;51.554;13.590;2022-09-09T04:56:22;13.10;99.90
15262;DHT22;7733;51.554;13.590;2022-09-09T04:58:48;13.10;99.90
15262;DHT22;7733;51.554;13.590;2022-09-09T05:01:16;13.10;99.90
15262;DHT22;7733;51.554;13.590;2022-09-09T05:03:44;13.10;99.90
15262;DHT22;7733;51.554;13.590;2022-09-09T05:06:21;12.90;99.90
15262;DHT22;7733;51.554;13.590;2022-09-09T05:08:47;12.80;99.90
15262;DHT22;7733;51.554;13.590;2022-09-09T05:13:51;12.80;99.90
15262;DHT22;7733;51.554;13.590;2022-09-09T05:16:18;12.70;99.90
15262;DHT22;7733;51.554;13.590;2022-09-09T05:18:45;12.80;99.90
15262;DHT22;7733;51.554;13.590;2022-09-09T05:21:13;12.80;99.90
15262;DHT22;7733;51.554;13.590;2022-09-09T05:23:40;12.80;99.90
15262;DHT22;7733;51.554;13.590;2022-09-09T05:26:08;12.90;99.90
15262;DHT22;7733;51.554;13.590;2022-09-09T05:28:37;13.00;99.90
15262;DHT22;7733;51.554;13.590;2022-09-09T05:31:05;13.10;99.90
15262;DHT22;7733;51.554;13.590;2022-09-09T05:33:38;13.20;99.90
15262;DHT22;7733;51.554;13.590;2022-09-09T05:36:16;13.10;99.90
15262;DHT22;7733;51.554;13.590;2022-09-09T05:38:44;13.20;99.90
15262;DHT22;7733;51.554;13.590;2022-09-09T05:41:11;13.30;99.90
15262;DHT22;7733;51.554;13.590;2022-09-09T05:43:38;13.40;99.90
15262;DHT22;7733;51.554;13.590;2022-09-09T05:46:06;13.40;99.90
15262;DHT22;7733;51.554;13.590;2022-09-09T05:48:37;13.40;99.90
15262;DHT22;7733;51.554;13.590;2022-09-09T05:51:06;13.40;99.90
15262;DHT22;7733;51.554;13.590;2022-09-09T05:53:33;13.40;99.90
15262;DHT22;7733;51.554;13.590;2022-09-09T05:56:04;13.40;99.90
15262;DHT22;7733;51.554;13.590;2022-09-09T05:58:33;13.50;99.90
15262;DHT22;7733;51.554;13.590;2022-09-09T06:01:04;13.50;99.90
15262;DHT22;7733;51.554;13.590;2022-09-09T06:03:35;13.60;99.90
15262;DHT22;7733;51.554;13.590;2022-09-09T06:06:05;13.60;99.90
15262;DHT22;7733;51.554;13.590;2022-09-09T06:08:37;13.70;99.90
15262;DHT22;7733;51.554;13.590;2022-09-09T06:11:07;13.80;99.90
15262;DHT22;7733;51.554;13.590;2022-09-09T06:13:35;13.90;99.90
15262;DHT22;7733;51.554;13.590;2022-09-09T06:16:04;14.00;99.90
15262;DHT22;7733;51.554;13.590;2022-09-09T06:18:37;14.20;99.90
15262;DHT22;7733;51.554;13.590;2022-09-09T06:21:06;14.30;99.90
15262;DHT22;7733;51.554;13.590;2022-09-09T06:23:34;14.50;99.90
15262;DHT22;7733;51.554;13.590;2022-09-09T06:26:09;14.60;99.90
15262;DHT22;7733;51.554;13.590;2022-09-09T06:28:37;14.80;99.90
15262;DHT22;7733;51.554;13.590;2022-09-09T06:31:06;15.00;99.90
15262;DHT22;7733;51.554;13.590;2022-09-09T06:33:39;15.10;99.90
15262;DHT22;7733;51.554;13.590;2022-09-09T06:36:14;15.20;99.90
15262;DHT22;7733;51.554;13.590;2022-09-09T06:38:45;15.30;99.90
15262;DHT22;7733;51.554;13.590;2022-09-09T06:41:13;15.40;99.90
15262;DHT22;7733;51.554;13.590;2022-09-09T06:43:40;15.40;99.90
15262;DHT22;7733;51.554;13.590;2022-09-09T06:46:09;15.50;99.90
15262;DHT22;7733;51.554;13.590;2022-09-09T06:48:38;15.50;99.90
15262;DHT22;7733;51.554;13.590;2022-09-09T06:53:41;15.60;99.90
15262;DHT22;7733;51.554;13.590;2022-09-09T06:56:32;15.70;99.90
15262;DHT22;7733;51.554;13.590;2022-09-09T06:59:04;15.80;99.90
15262;DHT22;7733;51.554;13.590;2022-09-09T07:01:38;15.90;99.90
15262;DHT22;7733;51.554;13.590;2022-09-09T07:04:16;15.90;99.90
15262;DHT22;7733;51.554;13.590;2022-09-09T07:06:44;16.00;99.90
15262;DHT22;7733;51.554;13.590;2022-09-09T07:09:13;16.10;99.90
15262;DHT22;7733;51.554;13.590;2022-09-09T07:11:46;16.20;99.90
15262;DHT22;7733;51.554;13.590;2022-09-09T07:14:13;16.30;99.90
15262;DHT22;7733;51.554;13.590;2022-09-09T07:16:41;16.30;99.90
15262;DHT22;7733;51.554;13.590;2022-09-09T07:19:08;16.40;99.90
15262;DHT22;7733;51.554;13.590;2022-09-09T07:21:34;16.40;99.90
15262;DHT22;7733;51.554;13.590;2022-09-09T07:24:00;16.50;99.90
15262;DHT22;7733;51.554;13.590;2022-09-09T07:26:29;16.60;99.90
15262;DHT22;7733;51.554;13.590;2022-09-09T07:28:55;16.70;99.90
15262;DHT22;7733;51.554;13.590;2022-09-09T07:31:30;16.80;99.90
15262;DHT22;7733;51.554;13.590;2022-09-09T07:34:00;17.00;99.90
15262;DHT22;7733;51.554;13.590;2022-09-09T07:36:31;17.10;99.90
15262;DHT22;7733;51.554;13.590;2022-09-09T07:39:05;17.20;99.90
15262;DHT22;7733;51.554;13.590;2022-09-09T07:41:36;17.20;99.90
15262;DHT22;7733;51.554;13.590;2022-09-09T07:44:08;17.40;99.90
15262;DHT22;7733;51.554;13.590;2022-09-09T07:46:36;17.60;99.90
15262;DHT22;7733;51.554;13.590;2022-09-09T07:49:04;17.60;99.90
15262;DHT22;7733;51.554;13.590;2022-09-09T07:51:32;17.80;99.90
15262;DHT22;7733;51.554;13.590;2022-09-09T07:54:08;17.90;99.90
15262;DHT22;7733;51.554;13.590;2022-09-09T07:56:37;17.90;99.90
15262;DHT22;7733;51.554;13.590;2022-09-09T07:59:03;17.90;99.90
15262;DHT22;7733;51.554;13.590;2022-09-09T08:01:37;17.90;99.90
15262;DHT22;7733;51.554;13.590;2022-09-09T08:04:18;17.80;99.90
15262;DHT22;7733;51.554;13.590;2022-09-09T08:06:51;17.90;99.90
15262;DHT22;7733;51.554;13.590;2022-09-09T08:09:19;17.80;99.90
15262;DHT22;7733;51.554;13.590;2022-09-09T08:11:45;17.90;99.90
15262;DHT22;7733;51.554;13.590;2022-09-09T08:14:12;18.00;99.90
15262;DHT22;7733;51.554;13.590;2022-09-09T08:16:41;18.10;99.90
15262;DHT22;7733;51.554;13.590;2022-09-09T08:19:10;18.40;99.90
15262;DHT22;7733;51.554;13.590;2022-09-09T08:21:38;18.50;99.90
15262;DHT22;7733;51.554;13.590;2022-09-09T08:24:06;18.60;99.90
15262;DHT22;7733;51.554;13.590;2022-09-09T08:26:36;18.70;99.90
15262;DHT22;7733;51.554;13.590;2022-09-09T08:29:08;18.60;99.90
15262;DHT22;7733;51.554;13.590;2022-09-09T08:31:49;18.50;99.90
15262;DHT22;7733;51.554;13.590;2022-09-09T08:34:18;18.50;99.90
15262;DHT22;7733;51.554;13.590;2022-09-09T08:36:48;18.50;99.90
15262;DHT22;7733;51.554;13.590;2022-09-09T08:39:17;18.40;99.90
15262;DHT22;7733;51.554;13.590;2022-09-09T08:47:24;18.50;99.90
15262;DHT22;7733;51.554;13.590;2022-09-09T08:55:47;19.00;99.90
15262;DHT22;7733;51.554;13.590;2022-09-09T08:58:16;19.30;99.90
15262;DHT22;7733;51.554;13.590;2022-09-09T09:12:21;20.60;99.90
15262;DHT22;7733;51.554;13.590;2022-09-09T09:14:49;20.70;99.90
15262;DHT22;7733;51.554;13.590;2022-09-09T09:17:19;20.90;99.90
15262;DHT22;7733;51.554;13.590;2022-09-09T09:19:47;20.80;99.90
15262;DHT22;7733;51.554;13.590;2022-09-09T09:22:36;20.60;99.90
15262;DHT22;7733;51.554;13.590;2022-09-09T09:25:27;20.20;99.90
15262;DHT22;7733;51.554;13.590;2022-09-09T09:28:14;19.90;99.90
15262;DHT22;7733;51.554;13.590;2022-09-09T09:33:46;19.80;99.90
15262;DHT22;7733;51.554;13.590;2022-09-09T09:36:18;19.80;99.90
15262;DHT22;7733;51.554;13.590;2022-09-09T09:41:32;19.60;99.90
15262;DHT22;7733;51.554;13.590;2022-09-09T09:44:01;19.60;99.90
15262;DHT22;7733;51.554;13.590;2022-09-09T09:46:28;19.30;99.90
15262;DHT22;7733;51.554;13.590;2022-09-09T09:48:59;19.30;99.90
15262;DHT22;7733;51.554;13.590;2022-09-09T09:51:32;19.30;99.90
15262;DHT22;7733;51.554;13.590;2022-09-09T09:56:45;19.10;99.90
15262;DHT22;7733;51.554;13.590;2022-09-09T09:59:23;19.00;99.90
15262;DHT22;7733;51.554;13.590;2022-09-09T10:02:17;18.90;99.90
15262;DHT22;7733;51.554;13.590;2022-09-09T10:04:43;18.90;99.90
15262;DHT22;7733;51.554;13.590;2022-09-09T10:07:20;19.00;99.90
15262;DHT22;7733;51.554;13.590;2022-09-09T10:09:55;19.10;99.90
15262;DHT22;7733;51.554;13.590;2022-09-09T10:18:47;19.80;99.90
15262;DHT22;7733;51.554;13.590;2022-09-09T10:21:45;19.70;99.90
15262;DHT22;7733;51.554;13.590;2022-09-09T10:31:36;19.40;99.90
15262;DHT22;7733;51.554;13.590;2022-09-09T10:36:51;20.20;99.90
15262;DHT22;7733;51.554;13.590;2022-09-09T10:39:35;20.50;99.90
15262;DHT22;7733;51.554;13.590;2022-09-09T10:42:14;20.50;99.90
15262;DHT22;7733;51.554;13.590;2022-09-09T10:45:10;20.70;99.90
15262;DHT22;7733;51.554;13.590;2022-09-09T10:50:53;21.00;99.90
15262;DHT22;7733;51.554;13.590;2022-09-09T10:54:00;21.30;99.90
15262;DHT22;7733;51.554;13.590;2022-09-09T10:56:29;21.70;99.90
15262;DHT22;7733;51.554;13.590;2022-09-09T10:59:10;22.20;99.90
15262;DHT22;7733;51.554;13.590;2022-09-09T11:01:44;22.30;99.90
15262;DHT22;7733;51.554;13.590;2022-09-09T11:04:24;22.20;99.90
15262;DHT22;7733;51.554;13.590;2022-09-09T11:06:56;22.80;99.90
15262;DHT22;7733;51.554;13.590;2022-09-09T11:09:26;22.70;99.90
15262;DHT22;7733;51.554;13.590;2022-09-09T11:11:57;23.00;99.90
15262;DHT22;7733;51.554;13.590;2022-09-09T11:14:42;23.00;99.90
15262;DHT22;7733;51.554;13.590;2022-09-09T11:17:15;23.00;99.90
15262;DHT22;7733;51.554;13.590;2022-09-09T11:19:45;23.20;99.90
15262;DHT22;7733;51.554;13.590;2022-09-09T11:24:58;23.50;99.90
15262;DHT22;7733;51.554;13.590;2022-09-09T11:27:39;23.50;99.90
15262;DHT22;7733;51.554;13.590;2022-09-09T11:30:21;23.90;99.90
15262;DHT22;7733;51.554;13.590;2022-09-09T11:42:46;23.50;99.90
15262;DHT22;7733;51.554;13.590;2022-09-09T11:45:25;23.70;99.90
15262;DHT22;7733;51.554;13.590;2022-09-09T11:47:59;23.80;99.90
15262;DHT22;7733;51.554;13.590;2022-09-09T11:55:39;24.00;99.90
15262;DHT22;7733;51.554;13.590;2022-09-09T12:00:44;23.40;99.90
15262;DHT22;7733;51.554;13.590;2022-09-09T12:08:42;23.50;99.90
15262;DHT22;7733;51.554;13.590;2022-09-09T12:11:10;23.50;99.90
15262;DHT22;7733;51.554;13.590;2022-09-09T12:13:37;23.30;99.90
15262;DHT22;7733;51.554;13.590;2022-09-09T12:16:03;23.10;99.90
15262;DHT22;7733;51.554;13.590;2022-09-09T12:18:37;22.80;99.90
15262;DHT22;7733;51.554;13.590;2022-09-09T12:21:21;22.50;99.90
15262;DHT22;7733;51.554;13.590;2022-09-09T12:24:13;22.40;99.90
15262;DHT22;7733;51.554;13.590;2022-09-09T12:26:56;22.30;99.90
15262;DHT22;7733;51.554;13.590;2022-09-09T12:32:23;22.20;99.90
15262;DHT22;7733;51.554;13.590;2022-09-09T12:35:02;22.20;99.90
15262;DHT22;7733;51.554;13.590;2022-09-09T12:37:35;22.00;99.90
15262;DHT22;7733;51.554;13.590;2022-09-09T12:40:20;22.10;99.90
15262;DHT22;7733;51.554;13.590;2022-09-09T12:42:48;22.10;99.90
15262;DHT22;7733;51.554;13.590;2022-09-09T12:45:22;22.10;99.90
15262;DHT22;7733;51.554;13.590;2022-09-09T12:50:26;22.20;99.90
15262;DHT22;7733;51.554;13.590;2022-09-09T12:52:55;22.10;99.90
15262;DHT22;7733;51.554;13.590;2022-09-09T12:55:36;22.00;99.90
15262;DHT22;7733;51.554;13.590;2022-09-09T12:58:05;22.10;99.90
15262;DHT22;7733;51.554;13.590;2022-09-09T13:00:33;22.20;99.90
15262;DHT22;7733;51.554;13.590;2022-09-09T13:03:14;22.30;99.90
15262;DHT22;7733;51.554;13.590;2022-09-09T13:05:42;22.60;99.90
15262;DHT22;7733;51.554;13.590;2022-09-09T13:08:10;22.70;99.90
15262;DHT22;7733;51.554;13.590;2022-09-09T13:10:46;22.80;99.90
15262;DHT22;7733;51.554;13.590;2022-09-09T13:13:31;22.70;99.90
15262;DHT22;7733;51.554;13.590;2022-09-09T13:16:05;22.60;99.90
15262;DHT22;7733;51.554;13.590;2022-09-09T13:18:43;22.60;99.90
15262;DHT22;7733;51.554;13.590;2022-09-09T13:21:09;22.50;99.90
15262;DHT22;7733;51.554;13.590;2022-09-09T13:23:36;22.50;99.90
15262;DHT22;7733;51.554;13.590;2022-09-09T13:26:05;22.50;99.90
15262;DHT22;7733;51.554;13.590;2022-09-09T13:28:51;22.30;99.90
15262;DHT22;7733;51.554;13.590;2022-09-09T13:31:29;22.10;99.90
15262;DHT22;7733;51.554;13.590;2022-09-09T13:33:58;22.20;99.90
15262;DHT22;7733;51.554;13.590;2022-09-09T13:36:31;22.50;99.90
15262;DHT22;7733;51.554;13.590;2022-09-09T13:39:01;22.60;99.90
15262;DHT22;7733;51.554;13.590;2022-09-09T13:41:32;22.80;99.90
15262;DHT22;7733;51.554;13.590;2022-09-09T13:44:01;22.70;99.90
15262;DHT22;7733;51.554;13.590;2022-09-09T13:48:58;22.80;99.90
15262;DHT22;7733;51.554;13.590;2022-09-09T13:51:33;23.00;99.90
15262;DHT22;7733;51.554;13.590;2022-09-09T13:54:03;23.00;99.90
15262;DHT22;7733;51.554;13.590;2022-09-09T13:56:32;23.20;99.90
15262;DHT22;7733;51.554;13.590;2022-09-09T13:58:58;23.30;99.90
15262;DHT22;7733;51.554;13.590;2022-09-09T14:01:24;23.40;99.90
15262;DHT22;7733;51.554;13.590;2022-09-09T14:03:50;23.40;99.90
15262;DHT22;7733;51.554;13.590;2022-09-09T14:06:16;23.40;99.90
15262;DHT22;7733;51.554;13.590;2022-09-09T14:08:44;23.50;99.90
15262;DHT22;7733;51.554;13.590;2022-09-09T14:11:12;23.30;99.90
15262;DHT22;7733;51.554;13.590;2022-09-09T14:13:39;23.20;99.90
15262;DHT22;7733;51.554;13.590;2022-09-09T14:16:04;23.20;99.90
15262;DHT22;7733;51.554;13.590;2022-09-09T14:18:30;23.00;99.90
15262;DHT22;7733;51.554;13.590;2022-09-09T14:20:56;22.90;99.90
15262;DHT22;7733;51.554;13.590;2022-09-09T14:23:24;22.80;99.90
15262;DHT22;7733;51.554;13.590;2022-09-09T14:25:49;22.80;99.90
15262;DHT22;7733;51.554;13.590;2022-09-09T14:28:15;22.60;99.90
15262;DHT22;7733;51.554;13.590;2022-09-09T14:30:42;22.70;99.90
15262;DHT22;7733;51.554;13.590;2022-09-09T14:33:11;22.90;99.90
15262;DHT22;7733;51.554;13.590;2022-09-09T14:35:39;23.20;99.90
15262;DHT22;7733;51.554;13.590;2022-09-09T14:38:07;23.30;99.90
15262;DHT22;7733;51.554;13.590;2022-09-09T14:40:37;23.40;99.90
15262;DHT22;7733;51.554;13.590;2022-09-09T14:43:04;23.50;99.90
15262;DHT22;7733;51.554;13.590;2022-09-09T14:45:31;23.50;99.90
15262;DHT22;7733;51.554;13.590;2022-09-09T14:48:00;23.70;99.90
15262;DHT22;7733;51.554;13.590;2022-09-09T14:50:25;23.80;99.90
15262;DHT22;7733;51.554;13.590;2022-09-09T14:52:51;23.60;99.90
15262;DHT22;7733;51.554;13.590;2022-09-09T14:55:17;23.70;99.90
15262;DHT22;7733;51.554;13.590;2022-09-09T14:57:43;23.60;99.90
15262;DHT22;7733;51.554;13.590;2022-09-09T15:00:09;23.70;99.90
15262;DHT22;7733;51.554;13.590;2022-09-09T15:02:36;23.80;99.90
15262;DHT22;7733;51.554;13.590;2022-09-09T15:05:02;24.00;99.90
15262;DHT22;7733;51.554;13.590;2022-09-09T15:07:29;24.10;99.90
15262;DHT22;7733;51.554;13.590;2022-09-09T15:09:57;23.90;99.90
15262;DHT22;7733;51.554;13.590;2022-09-09T15:12:23;23.80;99.90
15262;DHT22;7733;51.554;13.590;2022-09-09T15:14:49;23.60;99.90
15262;DHT22;7733;51.554;13.590;2022-09-09T15:17:16;23.50;99.90
15262;DHT22;7733;51.554;13.590;2022-09-09T15:19:42;23.40;99.90
15262;DHT22;7733;51.554;13.590;2022-09-09T15:22:08;23.40;99.90
15262;DHT22;7733;51.554;13.590;2022-09-09T15:24:34;23.40;99.90
15262;DHT22;7733;51.554;13.590;2022-09-09T15:27:01;23.40;99.90
15262;DHT22;7733;51.554;13.590;2022-09-09T15:29:27;23.20;99.90
15262;DHT22;7733;51.554;13.590;2022-09-09T15:31:54;23.20;99.90
15262;DHT22;7733;51.554;13.590;2022-09-09T15:34:20;23.10;99.90
15262;DHT22;7733;51.554;13.590;2022-09-09T15:36:46;23.00;99.90
15262;DHT22;7733;51.554;13.590;2022-09-09T15:39:15;23.00;99.90
15262;DHT22;7733;51.554;13.590;2022-09-09T15:41:43;22.90;99.90
15262;DHT22;7733;51.554;13.590;2022-09-09T15:44:10;22.80;99.90
15262;DHT22;7733;51.554;13.590;2022-09-09T15:46:40;22.70;99.90
15262;DHT22;7733;51.554;13.590;2022-09-09T15:49:11;22.60;99.90
15262;DHT22;7733;51.554;13.590;2022-09-09T15:51:41;22.70;99.90
15262;DHT22;7733;51.554;13.590;2022-09-09T15:54:09;22.70;99.90
15262;DHT22;7733;51.554;13.590;2022-09-09T15:56:37;22.70;99.90
15262;DHT22;7733;51.554;13.590;2022-09-09T15:59:03;22.40;99.90
15262;DHT22;7733;51.554;13.590;2022-09-09T16:01:30;22.40;99.90
15262;DHT22;7733;51.554;13.590;2022-09-09T16:03:57;22.50;99.90
15262;DHT22;7733;51.554;13.590;2022-09-09T16:06:25;22.60;99.90
15262;DHT22;7733;51.554;13.590;2022-09-09T16:08:54;22.60;99.90
15262;DHT22;7733;51.554;13.590;2022-09-09T16:11:30;22.60;99.90
15262;DHT22;7733;51.554;13.590;2022-09-09T16:13:58;22.50;99.90
15262;DHT22;7733;51.554;13.590;2022-09-09T16:16:27;22.60;99.90
15262;DHT22;7733;51.554;13.590;2022-09-09T16:18:55;22.50;99.90
15262;DHT22;7733;51.554;13.590;2022-09-09T16:21:28;22.60;99.90
15262;DHT22;7733;51.554;13.590;2022-09-09T16:23:57;22.80;99.90
15262;DHT22;7733;51.554;13.590;2022-09-09T16:26:28;22.90;99.90
15262;DHT22;7733;51.554;13.590;2022-09-09T16:28:56;22.90;99.90
15262;DHT22;7733;51.554;13.590;2022-09-09T16:31:24;23.00;99.90
15262;DHT22;7733;51.554;13.590;2022-09-09T16:33:51;23.10;99.90
15262;DHT22;7733;51.554;13.590;2022-09-09T16:36:22;23.30;99.90
15262;DHT22;7733;51.554;13.590;2022-09-09T16:38:58;23.20;99.90
15262;DHT22;7733;51.554;13.590;2022-09-09T16:41:26;23.10;99.90
15262;DHT22;7733;51.554;13.590;2022-09-09T16:44:01;22.90;99.90
15262;DHT22;7733;51.554;13.590;2022-09-09T16:46:30;22.60;99.90
15262;DHT22;7733;51.554;13.590;2022-09-09T16:48:58;22.20;99.90
15262;DHT22;7733;51.554;13.590;2022-09-09T16:51:30;22.10;99.90
15262;DHT22;7733;51.554;13.590;2022-09-09T16:54:02;21.90;99.90
15262;DHT22;7733;51.554;13.590;2022-09-09T16:56:31;21.80;99.90
15262;DHT22;7733;51.554;13.590;2022-09-09T16:59:04;21.70;99.90
15262;DHT22;7733;51.554;13.590;2022-09-09T17:01:34;21.70;99.90
15262;DHT22;7733;51.554;13.590;2022-09-09T17:04:04;21.70;99.90
15262;DHT22;7733;51.554;13.590;2022-09-09T17:06:32;21.70;99.90
15262;DHT22;7733;51.554;13.590;2022-09-09T17:09:09;21.70;99.90
15262;DHT22;7733;51.554;13.590;2022-09-09T17:11:37;21.70;99.90
15262;DHT22;7733;51.554;13.590;2022-09-09T17:14:04;21.60;99.90
15262;DHT22;7733;51.554;13.590;2022-09-09T17:16:32;21.70;99.90
15262;DHT22;7733;51.554;13.590;2022-09-09T17:19:02;21.80;99.90
15262;DHT22;7733;51.554;13.590;2022-09-09T17:21:29;21.90;99.90
15262;DHT22;7733;51.554;13.590;2022-09-09T17:23:57;21.90;99.90
15262;DHT22;7733;51.554;13.590;2022-09-09T17:26:26;21.90;99.90
15262;DHT22;7733;51.554;13.590;2022-09-09T17:28:55;22.00;99.90
15262;DHT22;7733;51.554;13.590;2022-09-09T17:31:24;21.90;99.90
15262;DHT22;7733;51.554;13.590;2022-09-09T17:33:51;21.90;99.90
15262;DHT22;7733;51.554;13.590;2022-09-09T17:36:29;21.90;99.90
15262;DHT22;7733;51.554;13.590;2022-09-09T17:38:56;21.70;99.90
15262;DHT22;7733;51.554;13.590;2022-09-09T17:41:28;21.40;99.90
15262;DHT22;7733;51.554;13.590;2022-09-09T17:43:57;21.20;99.90
15262;DHT22;7733;51.554;13.590;2022-09-09T17:46:35;20.90;99.90
15262;DHT22;7733;51.554;13.590;2022-09-09T17:49:05;20.80;99.90
15262;DHT22;7733;51.554;13.590;2022-09-09T17:51:34;20.70;99.90
15262;DHT22;7733;51.554;13.590;2022-09-09T17:54:07;20.50;99.90
15262;DHT22;7733;51.554;13.590;2022-09-09T17:56:36;20.20;99.90
15262;DHT22;7733;51.554;13.590;2022-09-09T17:59:04;20.20;99.90
15262;DHT22;7733;51.554;13.590;2022-09-09T18:01:34;20.20;99.90
15262;DHT22;7733;51.554;13.590;2022-09-09T18:04:05;20.10;99.90